Time;durP1;ratioP1;P1;durP2;ratioP2;P2;SDS_P1;SDS_P2;PMS_P1;PMS_P2;Temp;Humidity;BMP_temperature;BMP_pressure;BME280_temperature;BME280_humidity;BME280_pressure;Samples;Min_cycle;Max_cycle;Signal;HPM_P1;HPM_P2
2023/03/12 00:00:54;;;;;;;6.00;2.38;;;0.10;99.90;;;;;;6067015;23;20030;-80
2023/03/12 00:03:19;;;;;;;7.68;2.70;;;0.90;99.90;;;;;;6070044;23;20018;-80
2023/03/12 00:05:45;;;;;;;5.13;2.78;;;0.10;99.90;;;;;;6069176;23;20081;-80
2023/03/12 00:08:14;;;;;;;4.65;2.97;;;0.10;99.90;;;;;;6044898;23;20056;-80
2023/03/12 00:10:42;;;;;;;5.40;2.92;;;0.40;99.90;;;;;;6045394;23;20014;-80
2023/03/12 00:13:08;;;;;;;8.20;3.28;;;0.30;99.90;;;;;;6068687;23;20522;-80
2023/03/12 00:15:40;;;;;;;13.63;3.72;;;0.10;99.90;;;;;;6044329;23;20077;-80
2023/03/12 00:18:05;;;;;;;6.38;3.35;;;0.10;99.90;;;;;;6044531;23;20033;-80
2023/03/12 00:20:32;;;;;;;7.32;3.15;;;1.20;99.90;;;;;;6042944;23;20368;-80
2023/03/12 00:22:57;;;;;;;7.43;3.55;;;0.60;99.90;;;;;;6044893;23;20014;-80
2023/03/12 00:25:26;;;;;;;14.27;3.90;;;0.00;99.90;;;;;;6068701;23;20407;-80
2023/03/12 00:27:52;;;;;;;8.00;3.90;;;-0.40;99.90;;;;;;6069529;23;20046;-80
2023/03/12 00:30:18;;;;;;;7.60;3.78;;;0.50;99.90;;;;;;6044139;23;20173;-80
2023/03/12 00:32:46;;;;;;;11.63;3.80;;;0.80;99.90;;;;;;6045338;23;20371;-80
2023/03/12 00:35:14;;;;;;;9.63;4.03;;;0.00;99.90;;;;;;6069233;23;20021;-80
2023/03/12 00:37:40;;;;;;;6.88;3.88;;;0.00;99.90;;;;;;6046373;23;20015;-80
2023/03/12 00:40:08;;;;;;;10.40;4.13;;;1.20;99.90;;;;;;6044370;23;20129;-80
2023/03/12 00:42:36;;;;;;;9.15;4.22;;;-0.10;99.90;;;;;;6070277;23;20026;-80
2023/03/12 00:45:02;;;;;;;10.82;3.90;;;0.00;99.90;;;;;;6044328;23;20018;-80
2023/03/12 00:47:30;;;;;;;6.55;3.50;;;0.80;99.90;;;;;;6068913;23;20054;-80
2023/03/12 00:49:58;;;;;;;9.75;4.20;;;0.40;99.90;;;;;;6044463;23;20025;-80
2023/03/12 00:52:29;;;;;;;8.23;3.85;;;-0.10;99.90;;;;;;6044322;23;20763;-80
2023/03/12 00:54:57;;;;;;;9.27;3.63;;;-0.80;99.90;;;;;;6068704;23;20015;-80
2023/03/12 00:57:24;;;;;;;7.00;3.47;;;-0.10;99.90;;;;;;6045139;23;20632;-80
2023/03/12 00:59:49;;;;;;;5.05;3.80;;;0.30;99.90;;;;;;6045107;23;20022;-80
2023/03/12 01:02:15;;;;;;;8.45;4.20;;;0.30;99.90;;;;;;6068048;23;20187;-80
2023/03/12 01:04:44;;;;;;;8.38;3.78;;;0.00;99.90;;;;;;6044940;23;20026;-80
2023/03/12 01:07:12;;;;;;;7.55;4.13;;;0.40;99.90;;;;;;6042537;23;20065;-80
2023/03/12 01:09:39;;;;;;;11.35;4.00;;;-0.10;99.90;;;;;;6045780;23;20479;-80
2023/03/12 01:12:07;;;;;;;11.30;4.00;;;0.50;99.90;;;;;;6046078;23;20023;-80
2023/03/12 01:14:33;;;;;;;8.90;3.95;;;0.10;99.90;;;;;;6069938;23;20022;-80
2023/03/12 01:16:58;;;;;;;10.90;3.70;;;0.10;99.90;;;;;;6046269;23;20061;-80
2023/03/12 01:19:24;;;;;;;7.07;3.63;;;0.10;99.90;;;;;;6069815;23;20022;-80
2023/03/12 01:21:53;;;;;;;6.55;3.80;;;0.20;99.90;;;;;;6044635;23;20014;-80
2023/03/12 01:24:21;;;;;;;7.65;3.63;;;0.20;99.90;;;;;;6046167;23;20459;-79
2023/03/12 01:26:47;;;;;;;9.73;3.72;;;0.10;99.90;;;;;;6070806;23;20040;-80
2023/03/12 01:29:13;;;;;;;6.63;3.58;;;0.90;99.90;;;;;;6071042;23;20561;-80
2023/03/12 01:31:41;;;;;;;6.60;3.50;;;1.20;99.90;;;;;;6046415;23;20101;-80
2023/03/12 01:34:13;;;;;;;5.93;3.17;;;0.30;99.90;;;;;;6046316;23;20015;-80
2023/03/12 01:36:39;;;;;;;5.63;3.83;;;0.20;99.90;;;;;;6040534;23;20428;-80
2023/03/12 01:39:08;;;;;;;8.35;4.28;;;0.40;99.90;;;;;;6044492;23;20070;-80
2023/03/12 01:41:39;;;;;;;11.13;3.70;;;0.20;99.90;;;;;;6046731;23;20077;-80
2023/03/12 01:44:06;;;;;;;7.43;3.22;;;1.10;99.90;;;;;;6045601;23;20130;-80
2023/03/12 01:46:42;;;;;;;8.23;3.60;;;1.10;99.90;;;;;;6044537;23;20799;-80
2023/03/12 01:49:31;;;;;;;7.93;2.97;;;0.30;99.90;;;;;;6043890;23;20101;-80
2023/03/12 01:52:27;;;;;;;5.65;4.00;;;0.40;99.90;;;;;;6067321;23;20026;-80
2023/03/12 01:55:09;;;;;;;7.47;3.65;;;0.50;99.90;;;;;;6046828;23;20116;-80
2023/03/12 01:57:54;;;;;;;7.30;3.53;;;0.50;99.90;;;;;;6045779;23;20014;-80
2023/03/12 02:00:24;;;;;;;5.95;3.90;;;0.50;99.90;;;;;;6046700;23;20443;-80
2023/03/12 02:02:53;;;;;;;4.57;3.55;;;0.50;99.90;;;;;;6068379;23;20029;-80
2023/03/12 02:05:28;;;;;;;7.80;4.43;;;0.10;99.90;;;;;;6046140;23;20026;-80
2023/03/12 02:07:53;;;;;;;8.00;4.47;;;0.70;99.90;;;;;;6069041;23;20029;-80
2023/03/12 02:10:23;;;;;;;8.38;4.07;;;0.50;99.90;;;;;;6045786;23;20463;-80
2023/03/12 02:12:56;;;;;;;5.95;3.67;;;1.20;99.90;;;;;;6046198;23;20478;-80
2023/03/12 02:15:22;;;;;;;6.20;4.10;;;1.20;99.90;;;;;;6070306;23;20015;-80
2023/03/12 02:17:53;;;;;;;8.23;4.25;;;1.30;99.90;;;;;;6044856;23;20061;-80
2023/03/12 02:20:47;;;;;;;6.72;3.55;;;0.60;99.90;;;;;;6070094;23;20440;-80
2023/03/12 02:23:30;;;;;;;6.63;3.30;;;0.50;99.90;;;;;;6037245;23;20015;-80
2023/03/12 02:25:57;;;;;;;5.05;3.35;;;0.60;99.90;;;;;;6044811;23;20121;-80
2023/03/12 02:28:28;;;;;;;6.88;3.53;;;0.60;99.90;;;;;;6045922;23;20022;-79
2023/03/12 02:30:58;;;;;;;4.22;3.00;;;1.80;99.90;;;;;;6044504;23;20018;-79
2023/03/12 02:33:24;;;;;;;6.95;3.40;;;0.60;99.90;;;;;;6044269;23;20029;-80
2023/03/12 02:35:51;;;;;;;10.55;3.28;;;0.60;99.90;;;;;;6045072;23;20024;-80
2023/03/12 02:38:38;;;;;;;9.15;3.97;;;1.40;99.90;;;;;;6045570;23;20030;-80
2023/03/12 02:41:52;;;;;;;5.38;3.03;;;0.70;99.90;;;;;;6044574;23;20105;-80
2023/03/12 02:44:21;;;;;;;3.92;3.08;;;0.60;99.90;;;;;;6040618;23;20023;-80
2023/03/12 02:46:57;;;;;;;5.40;2.83;;;0.70;99.90;;;;;;6068381;23;20456;-80
2023/03/12 02:49:30;;;;;;;8.50;3.30;;;0.70;99.90;;;;;;6045541;23;20018;-80
2023/03/12 02:51:59;;;;;;;6.35;3.25;;;0.80;99.90;;;;;;6044781;23;20019;-80
2023/03/12 02:54:26;;;;;;;6.32;2.70;;;1.80;99.90;;;;;;6043371;23;20352;-80
2023/03/12 02:56:54;;;;;;;5.45;2.70;;;0.60;99.90;;;;;;6046231;23;20020;-80
2023/03/12 02:59:24;;;;;;;5.30;3.10;;;0.70;99.90;;;;;;6069467;23;20359;-80
2023/03/12 03:01:55;;;;;;;6.65;3.47;;;0.70;99.90;;;;;;6046678;23;20360;-80
2023/03/12 03:04:30;;;;;;;6.10;3.92;;;1.00;99.90;;;;;;6045511;23;20053;-80
2023/03/12 03:06:58;;;;;;;8.68;3.40;;;1.70;99.90;;;;;;6043147;23;20117;-80
2023/03/12 03:09:24;;;;;;;7.43;3.80;;;1.60;99.90;;;;;;6046272;23;20034;-80
2023/03/12 03:11:50;;;;;;;7.63;3.40;;;1.30;99.90;;;;;;6044485;23;20752;-80
2023/03/12 03:14:19;;;;;;;11.38;3.47;;;0.10;99.90;;;;;;6069939;23;20637;-80
2023/03/12 03:16:47;;;;;;;7.35;3.83;;;0.80;99.90;;;;;;6045372;23;20022;-80
2023/03/12 03:19:13;;;;;;;6.93;4.20;;;0.70;99.90;;;;;;6045759;23;20015;-80
2023/03/12 03:21:39;;;;;;;9.10;3.72;;;0.70;99.90;;;;;;6044075;23;20014;-80
2023/03/12 03:24:05;;;;;;;8.27;3.58;;;1.60;99.90;;;;;;6068076;23;20014;-80
2023/03/12 03:26:41;;;;;;;5.97;3.40;;;0.70;99.90;;;;;;6044791;23;20030;-80
2023/03/12 03:29:07;;;;;;;7.30;4.15;;;1.60;99.90;;;;;;6045452;23;20026;-80
2023/03/12 03:31:33;;;;;;;5.47;3.72;;;1.00;99.90;;;;;;6044070;23;20022;-80
2023/03/12 03:34:02;;;;;;;8.18;4.00;;;1.50;99.90;;;;;;6044366;23;20379;-80
2023/03/12 03:36:31;;;;;;;8.35;3.70;;;0.90;99.90;;;;;;6068692;23;20014;-80
2023/03/12 03:38:56;;;;;;;7.25;3.60;;;1.10;99.90;;;;;;6044618;23;20014;-79
2023/03/12 03:41:24;;;;;;;7.65;3.67;;;2.10;99.90;;;;;;6045124;23;20015;-79
2023/03/12 03:43:50;;;;;;;9.38;3.75;;;0.90;99.90;;;;;;6044954;23;20371;-79
2023/03/12 03:46:16;;;;;;;7.80;3.97;;;1.00;99.90;;;;;;6044427;23;20042;-79
2023/03/12 03:48:42;;;;;;;9.02;3.70;;;1.00;99.90;;;;;;6044293;23;20454;-79
2023/03/12 03:51:09;;;;;;;8.70;4.18;;;0.50;99.90;;;;;;6044125;23;20029;-79
2023/03/12 03:53:35;;;;;;;7.93;3.38;;;1.30;99.90;;;;;;6043309;23;20018;-79
2023/03/12 03:56:09;;;;;;;10.90;3.55;;;1.10;99.90;;;;;;6045197;23;20026;-79
2023/03/12 03:58:38;;;;;;;8.70;3.05;;;1.00;99.90;;;;;;6043771;23;20522;-79
2023/03/12 04:01:05;;;;;;;6.80;3.00;;;1.10;99.90;;;;;;6043660;23;20196;-79
2023/03/12 04:03:31;;;;;;;7.75;3.33;;;1.10;99.90;;;;;;6070565;23;20044;-79
2023/03/12 04:06:02;;;;;;;7.80;3.03;;;1.10;99.90;;;;;;6046939;23;20093;-79
2023/03/12 04:08:31;;;;;;;5.88;3.40;;;2.30;99.90;;;;;;6045599;23;20054;-79
2023/03/12 04:10:56;;;;;;;8.07;3.05;;;1.50;99.90;;;;;;6069405;23;20015;-79
2023/03/12 04:13:22;;;;;;;5.72;3.70;;;1.30;99.90;;;;;;6044943;23;20022;-79
2023/03/12 04:15:53;;;;;;;8.18;3.25;;;1.20;99.90;;;;;;6069896;23;20053;-79
2023/03/12 04:18:22;;;;;;;6.18;3.85;;;1.10;99.90;;;;;;6046106;23;20394;-79
2023/03/12 04:20:47;;;;;;;6.47;2.95;;;0.80;99.90;;;;;;6068627;23;20019;-79
2023/03/12 04:23:16;;;;;;;5.63;3.40;;;2.10;99.90;;;;;;6068529;23;20045;-78
2023/03/12 04:25:51;;;;;;;5.65;3.45;;;1.10;99.90;;;;;;6044913;23;20022;-79
2023/03/12 04:28:20;;;;;;;7.43;3.83;;;1.30;99.90;;;;;;6044467;23;20444;-79
2023/03/12 04:31:01;;;;;;;8.68;3.33;;;1.60;99.90;;;;;;6044276;23;20448;-78
2023/03/12 04:33:29;;;;;;;11.00;4.60;;;0.80;99.90;;;;;;6044289;23;20018;-78
2023/03/12 04:35:55;;;;;;;7.30;3.45;;;1.20;99.90;;;;;;6045152;23;20367;-78
2023/03/12 04:38:25;;;;;;;12.60;4.32;;;1.50;99.90;;;;;;6043542;23;20680;-79
2023/03/12 04:41:06;;;;;;;6.47;3.40;;;2.70;99.90;;;;;;6044652;23;20098;-78
2023/03/12 04:43:35;;;;;;;4.60;3.00;;;1.20;99.90;;;;;;6045302;23;20022;-78
2023/03/12 04:46:01;;;;;;;8.63;3.75;;;1.50;99.90;;;;;;6045784;23;20503;-78
2023/03/12 04:48:28;;;;;;;6.68;3.10;;;1.20;99.90;;;;;;6046825;23;20029;-78
2023/03/12 04:50:54;;;;;;;5.05;3.40;;;2.30;99.90;;;;;;6046506;23;20094;-78
2023/03/12 04:53:20;;;;;;;5.88;3.17;;;1.80;99.90;;;;;;6045877;23;20010;-78
2023/03/12 04:55:51;;;;;;;6.22;2.67;;;1.90;99.90;;;;;;6046986;23;20407;-79
2023/03/12 04:58:21;;;;;;;7.85;2.88;;;1.30;99.90;;;;;;6045150;23;20022;-79
2023/03/12 05:00:50;;;;;;;10.25;4.18;;;1.90;99.90;;;;;;6044510;23;20105;-79
2023/03/12 05:03:21;;;;;;;5.65;3.38;;;1.40;99.90;;;;;;6047051;23;20439;-79
2023/03/12 05:05:55;;;;;;;8.95;3.33;;;1.50;99.90;;;;;;6047862;23;20047;-79
2023/03/12 05:08:23;;;;;;;6.35;3.60;;;1.50;99.90;;;;;;6047283;23;20391;-79
2023/03/12 05:10:49;;;;;;;5.35;3.53;;;2.20;99.90;;;;;;6045973;23;20026;-79
2023/03/12 05:13:16;;;;;;;6.80;2.95;;;1.20;99.90;;;;;;6071287;23;20025;-79
2023/03/12 05:15:42;;;;;;;7.50;3.38;;;1.40;99.90;;;;;;6046183;23;20042;-79
2023/03/12 05:18:19;;;;;;;7.07;3.37;;;1.50;99.90;;;;;;6048156;23;20066;-79
2023/03/12 05:20:45;;;;;;;11.13;3.55;;;1.80;99.90;;;;;;6046757;23;20014;-79
2023/03/12 05:23:11;;;;;;;5.63;3.20;;;1.50;99.90;;;;;;6044684;23;20022;-79
2023/03/12 05:25:40;;;;;;;5.97;2.80;;;1.40;99.90;;;;;;6047549;23;20030;-78
2023/03/12 05:28:06;;;;;;;9.30;4.13;;;1.30;99.90;;;;;;6071118;23;20022;-78
2023/03/12 05:30:33;;;;;;;7.15;3.17;;;1.40;99.90;;;;;;6045875;23;20022;-79
2023/03/12 05:32:58;;;;;;;6.07;3.60;;;1.40;99.90;;;;;;6045579;23;20014;-79
2023/03/12 05:35:24;;;;;;;6.20;3.22;;;1.40;99.90;;;;;;6071030;23;20097;-79
2023/03/12 05:37:50;;;;;;;3.72;3.15;;;1.50;99.90;;;;;;6046125;23;20018;-79
2023/03/12 05:40:16;;;;;;;11.23;3.53;;;1.40;99.90;;;;;;6045630;23;20093;-79
2023/03/12 05:42:42;;;;;;;8.23;3.30;;;1.40;99.90;;;;;;6046487;23;20097;-78
2023/03/12 05:45:08;;;;;;;12.02;3.78;;;2.20;99.90;;;;;;6070187;23;20522;-78
2023/03/12 05:47:34;;;;;;;6.85;3.42;;;1.50;99.90;;;;;;6044141;23;20061;-79
2023/03/12 05:50:00;;;;;;;10.23;4.07;;;1.50;99.90;;;;;;6066539;23;20018;-79
2023/03/12 05:52:25;;;;;;;6.85;3.55;;;1.40;99.90;;;;;;6045051;23;20086;-78
2023/03/12 05:54:52;;;;;;;6.00;3.63;;;2.30;99.90;;;;;;6045659;23;20018;-78
2023/03/12 05:57:17;;;;;;;8.63;4.15;;;1.50;99.90;;;;;;6070235;23;20014;-78
2023/03/12 05:59:43;;;;;;;7.10;3.75;;;1.60;99.90;;;;;;6045654;23;20022;-78
2023/03/12 06:02:09;;;;;;;6.95;3.58;;;2.40;99.90;;;;;;6045431;23;20536;-79
2023/03/12 06:04:35;;;;;;;7.45;4.07;;;1.60;99.90;;;;;;6068441;23;20014;-79
2023/03/12 06:07:01;;;;;;;10.75;3.83;;;1.50;99.90;;;;;;6044043;23;20392;-79
2023/03/12 06:09:27;;;;;;;7.53;3.88;;;1.50;99.90;;;;;;6044520;23;20015;-79
2023/03/12 06:11:52;;;;;;;9.07;3.55;;;1.50;99.90;;;;;;6068670;23;20089;-78
2023/03/12 06:14:18;;;;;;;11.30;3.83;;;2.40;99.90;;;;;;6043534;23;20025;-78
2023/03/12 06:16:44;;;;;;;9.30;3.45;;;1.80;99.90;;;;;;6045962;23;20045;-79
2023/03/12 06:19:12;;;;;;;11.63;3.85;;;2.00;99.90;;;;;;6043335;23;20018;-78
2023/03/12 06:21:39;;;;;;;20.08;4.45;;;1.70;99.90;;;;;;6041807;23;20014;-80
2023/03/12 06:24:05;;;;;;;5.97;3.90;;;2.10;99.90;;;;;;6046250;23;20392;-80
2023/03/12 06:26:31;;;;;;;9.52;4.00;;;1.70;99.90;;;;;;6048334;23;20014;-80
2023/03/12 06:28:56;;;;;;;8.75;3.88;;;1.90;99.90;;;;;;6048402;23;20073;-80
2023/03/12 06:31:23;;;;;;;6.10;3.88;;;1.80;99.90;;;;;;6072311;23;20085;-80
2023/03/12 06:33:52;;;;;;;6.45;4.15;;;1.70;99.90;;;;;;6051177;23;20018;-78
2023/03/12 06:36:21;;;;;;;15.05;4.10;;;2.00;99.90;;;;;;6050146;23;20065;-79
2023/03/12 06:38:47;;;;;;;10.10;3.63;;;1.70;99.90;;;;;;6048698;23;20424;-78
2023/03/12 06:41:15;;;;;;;11.23;4.35;;;1.80;99.90;;;;;;6045024;23;20057;-80
2023/03/12 06:43:43;;;;;;;12.23;3.72;;;2.40;99.90;;;;;;6046361;23;20070;-80
2023/03/12 06:46:12;;;;;;;8.43;4.10;;;1.20;99.90;;;;;;6070806;23;20022;-80
2023/03/12 06:48:40;;;;;;;10.77;3.90;;;1.80;99.90;;;;;;6046279;23;20347;-80
2023/03/12 06:51:10;;;;;;;15.65;4.93;;;2.20;99.90;;;;;;6043012;23;20479;-79
2023/03/12 06:53:39;;;;;;;10.13;4.10;;;2.00;99.90;;;;;;6051393;23;20021;-78
2023/03/12 06:56:05;;;;;;;11.90;4.30;;;1.90;99.90;;;;;;6048901;23;20015;-79
2023/03/12 06:58:33;;;;;;;10.10;4.13;;;1.90;99.90;;;;;;6071727;23;20340;-80
2023/03/12 07:00:59;;;;;;;14.35;3.92;;;1.90;99.90;;;;;;6045249;23;20126;-79
2023/03/12 07:03:25;;;;;;;10.02;4.05;;;2.40;99.90;;;;;;6049574;23;20018;-79
2023/03/12 07:05:51;;;;;;;11.70;4.75;;;1.90;99.90;;;;;;6044363;23;20459;-78
2023/03/12 07:08:17;;;;;;;8.52;3.90;;;1.90;99.90;;;;;;6067082;23;20020;-78
2023/03/12 07:10:44;;;;;;;12.68;4.28;;;1.90;99.90;;;;;;6066727;23;20017;-79
2023/03/12 07:13:10;;;;;;;7.88;3.88;;;2.80;99.90;;;;;;6065122;23;20343;-78
2023/03/12 07:15:36;;;;;;;12.70;4.53;;;1.90;99.90;;;;;;6042819;23;20116;-78
2023/03/12 07:18:11;;;;;;;10.70;4.43;;;1.80;99.90;;;;;;6066954;23;20410;-78
2023/03/12 07:20:39;;;;;;;7.63;4.77;;;1.90;99.90;;;;;;6068018;23;20069;-78
2023/03/12 07:23:05;;;;;;;13.80;5.00;;;1.80;99.90;;;;;;6067534;23;20064;-78
2023/03/12 07:25:35;;;;;;;11.95;4.82;;;0.90;99.90;;;;;;6043287;23;20066;-78
2023/03/12 07:28:01;;;;;;;11.00;5.28;;;1.80;99.90;;;;;;6042076;23;20534;-78
2023/03/12 07:30:26;;;;;;;11.98;5.60;;;2.50;99.90;;;;;;6044055;23;20022;-78
2023/03/12 07:32:52;;;;;;;14.02;5.03;;;1.80;99.90;;;;;;6042974;23;20015;-78
2023/03/12 07:35:18;;;;;;;10.32;5.07;;;2.20;99.90;;;;;;6040910;23;20379;-78
2023/03/12 07:37:44;;;;;;;11.02;5.43;;;2.10;99.90;;;;;;6042195;23;20018;-78
2023/03/12 07:40:12;;;;;;;9.40;4.70;;;2.40;99.90;;;;;;6044662;23;20022;-79
2023/03/12 07:42:41;;;;;;;7.72;5.30;;;1.80;99.90;;;;;;6046735;23;20427;-80
2023/03/12 07:45:07;;;;;;;10.27;5.18;;;1.70;99.90;;;;;;6049807;23;20033;-79
2023/03/12 07:47:33;;;;;;;8.18;5.00;;;1.80;99.90;;;;;;6045465;23;20018;-79
2023/03/12 07:50:00;;;;;;;10.20;5.05;;;2.00;99.90;;;;;;6069026;23;20094;-78
2023/03/12 07:52:29;;;;;;;6.75;5.15;;;2.80;99.90;;;;;;6045769;23;20089;-81
2023/03/12 07:54:55;;;;;;;9.48;4.93;;;1.90;99.90;;;;;;6047095;23;20463;-79
2023/03/12 07:57:23;;;;;;;10.05;5.18;;;2.80;99.90;;;;;;6048371;23;20018;-78
2023/03/12 07:59:50;;;;;;;9.63;5.60;;;1.80;99.90;;;;;;6045887;23;20019;-78
2023/03/12 08:02:16;;;;;;;12.90;4.95;;;1.90;99.90;;;;;;6043978;23;20479;-79
2023/03/12 08:04:42;;;;;;;9.60;5.53;;;2.90;99.90;;;;;;6044623;23;20057;-79
2023/03/12 08:07:07;;;;;;;10.40;5.25;;;2.00;99.90;;;;;;6044720;23;20033;-81
2023/03/12 08:09:57;;;;;;;9.90;4.70;;;1.70;99.90;;;;;;6070890;23;20019;-81
2023/03/12 08:12:42;;;;;;;10.02;5.30;;;1.80;99.90;;;;;;6071636;23;20018;-80
2023/03/12 08:15:11;;;;;;;7.95;5.50;;;1.70;99.90;;;;;;6043160;23;20344;-79
2023/03/12 08:17:38;;;;;;;10.02;5.10;;;1.70;99.90;;;;;;6043055;23;20010;-79
2023/03/12 08:20:07;;;;;;;10.25;4.63;;;1.90;99.90;;;;;;6045008;23;20018;-78
2023/03/12 08:22:33;;;;;;;11.02;4.78;;;1.80;99.90;;;;;;6046413;23;20514;-80
2023/03/12 08:24:58;;;;;;;15.23;5.40;;;2.70;99.90;;;;;;6046868;23;20026;-80
2023/03/12 08:27:24;;;;;;;12.55;5.57;;;1.70;99.90;;;;;;6046784;23;20030;-80
2023/03/12 08:29:50;;;;;;;9.63;5.10;;;1.90;99.90;;;;;;6069695;23;20022;-80
2023/03/12 08:32:15;;;;;;;10.60;5.25;;;2.00;99.90;;;;;;6045639;23;20026;-80
2023/03/12 08:34:41;;;;;;;8.45;5.28;;;1.60;99.90;;;;;;6069880;23;20030;-78
2023/03/12 08:37:07;;;;;;;10.40;5.70;;;2.30;99.90;;;;;;6045604;23;20049;-80
2023/03/12 08:39:33;;;;;;;10.10;6.05;;;1.70;99.90;;;;;;6046121;23;20010;-81
2023/03/12 08:41:59;;;;;;;12.77;6.25;;;1.70;99.90;;;;;;6046180;23;20046;-81
2023/03/12 08:44:26;;;;;;;11.63;5.47;;;1.80;99.90;;;;;;6045052;23;20018;-81
2023/03/12 08:46:52;;;;;;;11.70;5.72;;;2.30;99.90;;;;;;6046810;23;20053;-81
2023/03/12 08:49:19;;;;;;;10.88;4.97;;;1.80;99.90;;;;;;6046524;23;20037;-80
2023/03/12 08:51:45;;;;;;;10.30;6.07;;;2.50;99.90;;;;;;6070197;23;20468;-80
2023/03/12 08:54:10;;;;;;;11.88;6.10;;;2.00;99.90;;;;;;6045881;23;20042;-80
2023/03/12 08:56:40;;;;;;;9.18;5.22;;;2.00;99.90;;;;;;6044633;23;20339;-80
2023/03/12 08:59:12;;;;;;;8.65;6.03;;;2.30;99.90;;;;;;6046801;23;20461;-80
2023/03/12 09:01:39;;;;;;;10.15;6.10;;;2.00;99.90;;;;;;6070380;23;20053;-80
2023/03/12 09:04:07;;;;;;;9.93;5.13;;;2.80;99.90;;;;;;6048655;23;20052;-80
2023/03/12 09:06:34;;;;;;;9.23;5.70;;;2.80;99.90;;;;;;6046486;23;20019;-79
2023/03/12 09:09:03;;;;;;;8.07;5.25;;;2.90;99.90;;;;;;6068662;23;20022;-79
2023/03/12 09:11:31;;;;;;;11.93;5.82;;;2.20;99.90;;;;;;6044068;23;20121;-79
2023/03/12 09:13:58;;;;;;;12.00;5.90;;;2.10;99.90;;;;;;6058391;23;20022;-77
2023/03/12 09:16:23;;;;;;;10.30;5.90;;;2.80;99.90;;;;;;6043670;23;20358;-79
2023/03/12 09:18:49;;;;;;;8.68;5.57;;;2.50;99.90;;;;;;6068202;23;20018;-79
2023/03/12 09:21:15;;;;;;;10.80;5.97;;;2.40;99.90;;;;;;6069371;23;20026;-79
2023/03/12 09:23:41;;;;;;;10.10;5.47;;;2.10;99.90;;;;;;6047289;23;20057;-81
2023/03/12 09:26:15;;;;;;;10.95;6.45;;;2.50;99.90;;;;;;6046928;23;20026;-82
2023/03/12 09:28:43;;;;;;;13.40;6.53;;;2.20;99.90;;;;;;6040836;23;20064;-81
2023/03/12 09:31:09;;;;;;;8.82;6.55;;;2.30;99.90;;;;;;6045351;23;20022;-81
2023/03/12 09:33:35;;;;;;;7.55;6.70;;;2.20;99.90;;;;;;6048043;23;20014;-81
2023/03/12 09:36:01;;;;;;;11.90;6.85;;;2.70;99.90;;;;;;6047606;23;20018;-80
2023/03/12 09:38:31;;;;;;;11.68;7.15;;;3.00;99.90;;;;;;6045361;23;20018;-81
2023/03/12 09:40:57;;;;;;;11.93;7.68;;;2.90;99.90;;;;;;6071666;23;20023;-80
2023/03/12 09:44:00;;;;;;;11.15;7.10;;;3.30;99.90;;;;;;6045132;23;20109;-81
2023/03/12 09:46:34;;;;;;;14.00;8.20;;;2.40;99.90;;;;;;6045671;23;20072;-81
2023/03/12 09:49:05;;;;;;;8.95;6.55;;;2.40;99.90;;;;;;6046603;23;20467;-81
2023/03/12 09:51:37;;;;;;;8.80;6.93;;;3.20;99.90;;;;;;6069439;23;20025;-82
2023/03/12 09:54:13;;;;;;;9.82;7.18;;;2.90;99.90;;;;;;6044197;23;20018;-81
2023/03/12 09:56:39;;;;;;;10.52;8.18;;;2.40;99.90;;;;;;6046378;23;20018;-81
2023/03/12 09:59:11;;;;;;;13.07;7.60;;;2.40;99.90;;;;;;6045136;23;20017;-81
2023/03/12 10:01:50;;;;;;;11.95;8.23;;;2.50;99.90;;;;;;6046295;23;20029;-81
2023/03/12 10:04:54;;;;;;;12.73;7.82;;;3.40;99.90;;;;;;6046002;23;20018;-81
2023/03/12 10:07:40;;;;;;;11.23;8.23;;;2.50;99.90;;;;;;6043004;23;20367;-80
2023/03/12 10:10:31;;;;;;;11.23;7.82;;;2.50;99.90;;;;;;6045276;23;20368;-79
2023/03/12 10:13:18;;;;;;;10.35;8.02;;;2.50;99.90;;;;;;6047022;23;20081;-79
2023/03/12 10:16:02;;;;;;;10.45;6.90;;;2.50;99.90;;;;;;6046264;23;20474;-80
2023/03/12 10:18:46;;;;;;;11.55;8.00;;;2.60;99.90;;;;;;6046507;23;20042;-82
2023/03/12 10:21:55;;;;;;;12.13;8.57;;;2.60;99.90;;;;;;6044816;23;20106;-79
2023/03/12 10:24:27;;;;;;;11.60;8.45;;;1.50;99.90;;;;;;6045553;23;20030;-81
2023/03/12 10:27:05;;;;;;;10.38;8.82;;;2.90;99.90;;;;;;6046102;23;20021;-81
2023/03/12 10:29:39;;;;;;;13.27;9.82;;;2.70;99.90;;;;;;6045296;23;20019;-78
2023/03/12 10:32:07;;;;;;;12.93;9.57;;;3.40;99.90;;;;;;6047122;23;20042;-79
2023/03/12 10:34:39;;;;;;;11.43;9.88;;;2.70;99.90;;;;;;6045737;23;20018;-78
2023/03/12 10:37:20;;;;;;;12.88;9.63;;;2.50;99.90;;;;;;6046043;23;20045;-78
2023/03/12 10:39:46;;;;;;;12.32;9.30;;;2.80;99.90;;;;;;6045206;23;20025;-78
2023/03/12 10:42:22;;;;;;;11.07;8.85;;;2.90;99.90;;;;;;6046042;23;20079;-78
2023/03/12 10:44:52;;;;;;;10.85;9.75;;;2.90;99.90;;;;;;6070327;23;20018;-78
2023/03/12 10:47:29;;;;;;;13.13;9.70;;;2.90;99.90;;;;;;6045421;23;20557;-78
2023/03/12 10:50:30;;;;;;;12.57;9.63;;;3.00;99.90;;;;;;6044255;23;20499;-78
2023/03/12 10:53:19;;;;;;;12.93;10.32;;;3.00;99.90;;;;;;6027212;23;20050;-78
2023/03/12 10:56:04;;;;;;;11.23;9.52;;;3.10;99.90;;;;;;6046196;23;20018;-78
2023/03/12 10:58:33;;;;;;;12.57;10.13;;;3.10;99.90;;;;;;6069922;23;20753;-78
2023/03/12 11:01:02;;;;;;;13.55;11.07;;;3.20;99.90;;;;;;6069636;23;20038;-78
2023/03/12 11:03:29;;;;;;;14.75;11.02;;;4.20;99.90;;;;;;6068135;23;20022;-78
2023/03/12 11:06:00;;;;;;;16.45;11.77;;;4.10;99.90;;;;;;6044630;23;20459;-78
2023/03/12 11:08:31;;;;;;;13.15;10.93;;;3.90;99.90;;;;;;6046227;23;20045;-78
2023/03/12 11:10:59;;;;;;;15.77;11.85;;;3.30;99.90;;;;;;6069965;23;20023;-78
2023/03/12 11:13:39;;;;;;;13.50;11.32;;;3.40;99.90;;;;;;6069553;23;20010;-78
2023/03/12 11:16:17;;;;;;;16.23;12.27;;;4.10;99.90;;;;;;6046122;23;20025;-78
2023/03/12 11:19:04;;;;;;;14.52;11.55;;;3.50;99.90;;;;;;6043814;23;20011;-78
2023/03/12 11:21:39;;;;;;;13.20;11.80;;;3.60;99.90;;;;;;6069745;23;20018;-79
2023/03/12 11:24:06;;;;;;;16.00;12.00;;;3.70;99.90;;;;;;6044812;23;20097;-78
2023/03/12 11:26:53;;;;;;;21.70;13.55;;;3.80;99.90;;;;;;6070060;23;20745;-78
2023/03/12 11:29:38;;;;;;;17.35;13.57;;;4.10;99.90;;;;;;6045854;23;20101;-78
2023/03/12 11:32:23;;;;;;;21.40;14.15;;;4.00;99.90;;;;;;6069514;23;20060;-78
2023/03/12 11:34:51;;;;;;;27.10;16.63;;;4.00;99.90;;;;;;6045765;23;20020;-78
2023/03/12 11:37:35;;;;;;;18.95;15.05;;;5.20;99.90;;;;;;6045253;23;20435;-78
2023/03/12 11:40:42;;;;;;;23.73;15.45;;;4.20;99.90;;;;;;6045710;23;20744;-78
2023/03/12 11:43:37;;;;;;;20.73;14.48;;;4.30;99.90;;;;;;6045119;23;20018;-78
2023/03/12 11:46:29;;;;;;;21.75;16.15;;;4.40;99.90;;;;;;6057063;23;20019;-78
2023/03/12 11:48:57;;;;;;;18.70;15.32;;;4.50;99.90;;;;;;6045477;23;20028;-78
2023/03/12 11:51:36;;;;;;;18.30;14.57;;;4.60;99.90;;;;;;6047046;23;20014;-78
2023/03/12 11:54:31;;;;;;;22.83;15.75;;;5.40;99.90;;;;;;6045643;23;20053;-78
2023/03/12 11:57:26;;;;;;;22.33;15.80;;;4.90;99.90;;;;;;6069060;23;20011;-78
2023/03/12 11:59:55;;;;;;;20.38;16.15;;;4.90;99.90;;;;;;6045077;23;20059;-78
2023/03/12 12:02:48;;;;;;;20.88;15.93;;;5.00;99.90;;;;;;6044169;23;20423;-78
2023/03/12 12:05:51;;;;;;;18.58;15.77;;;5.50;99.90;;;;;;6065865;23;20359;-78
2023/03/12 12:08:39;;;;;;;23.00;15.98;;;5.30;99.90;;;;;;6045438;23;20466;-78
2023/03/12 12:11:19;;;;;;;21.10;16.40;;;5.30;99.90;;;;;;6046980;23;20097;-78
2023/03/12 12:14:18;;;;;;;19.08;16.20;;;5.50;99.90;;;;;;6045148;23;20018;-78
2023/03/12 12:17:05;;;;;;;19.42;15.30;;;5.50;99.90;;;;;;6069178;23;20018;-78
2023/03/12 12:19:49;;;;;;;20.13;16.10;;;5.60;99.90;;;;;;6044561;23;20026;-78
2023/03/12 12:22:45;;;;;;;23.45;16.33;;;5.70;99.90;;;;;;6045592;23;20015;-79
2023/03/12 12:25:46;;;;;;;21.02;16.45;;;5.80;99.90;;;;;;6068865;23;20062;-78
2023/03/12 12:28:30;;;;;;;27.10;18.98;;;5.90;99.90;;;;;;6068634;23;20022;-78
2023/03/12 12:31:06;;;;;;;26.90;17.25;;;6.10;99.90;;;;;;6045613;23;20527;-78
2023/03/12 12:33:41;;;;;;;23.85;17.95;;;6.30;99.90;;;;;;6068804;23;20097;-78
2023/03/12 12:36:10;;;;;;;20.98;16.08;;;6.40;99.90;;;;;;6045375;23;20081;-78
2023/03/12 12:38:44;;;;;;;23.02;17.23;;;6.50;99.90;;;;;;6043595;23;20651;-78
2023/03/12 12:41:14;;;;;;;22.35;17.25;;;6.50;99.90;;;;;;6045768;23;20329;-78
2023/03/12 12:43:46;;;;;;;23.80;16.73;;;7.00;99.90;;;;;;6069075;23;20308;-78
2023/03/12 12:46:21;;;;;;;20.23;16.27;;;6.70;99.90;;;;;;6069952;23;20018;-78
2023/03/12 12:49:05;;;;;;;19.58;14.52;;;6.90;99.90;;;;;;6044558;23;20097;-78
2023/03/12 12:51:42;;;;;;;20.50;15.25;;;6.90;99.90;;;;;;6044813;23;20019;-78
2023/03/12 12:54:54;;;;;;;21.65;15.80;;;7.00;99.90;;;;;;6066774;23;20606;-78
2023/03/12 12:57:27;;;;;;;16.80;13.82;;;7.10;99.90;;;;;;6036839;23;20018;-78
2023/03/12 13:00:09;;;;;;;21.52;16.00;;;7.30;99.90;;;;;;6067738;23;20124;-78
2023/03/12 13:02:39;;;;;;;16.70;14.55;;;7.30;99.90;;;;;;6069857;23;20030;-78
2023/03/12 13:05:36;;;;;;;26.38;16.33;;;7.30;99.90;;;;;;6068881;23;20011;-78
2023/03/12 13:08:04;;;;;;;17.20;14.30;;;7.30;99.90;;;;;;6055244;23;20125;-78
2023/03/12 13:10:32;;;;;;;17.50;13.57;;;7.80;99.90;;;;;;6046474;23;20018;-78
2023/03/12 13:13:02;;;;;;;19.98;14.00;;;7.50;99.90;;;;;;6069847;23;20046;-78